sensor_id;sensor_type;location;lat;lon;timestamp;pressure;altitude;pressure_sealevel;temperature;humidity
68489;BME280;55481;48.764;8.936;2022-09-01T00:00:19;97230;;;14;77
68489;BME280;55481;48.764;8.936;2022-09-01T00:02:36;97230;;;14;77
68489;BME280;55481;48.764;8.936;2022-09-01T00:05:07;97230;;;13.8;77.5
68489;BME280;55481;48.764;8.936;2022-09-01T00:10:05;97230;;;13.7;78
68489;BME280;55481;48.764;8.936;2022-09-01T00:12:33;97220;;;13.8;77.5
68489;BME280;55481;48.764;8.936;2022-09-01T00:22:36;97230;;;13.9;77
68489;BME280;55481;48.764;8.936;2022-09-01T00:25:07;97230;;;13.9;77
68489;BME280;55481;48.764;8.936;2022-09-01T00:27:38;97230;;;14;76.5
68489;BME280;55481;48.764;8.936;2022-09-01T00:30:22;97230;;;13.9;77
68489;BME280;55481;48.764;8.936;2022-09-01T00:32:52;97220;;;13.9;77
68489;BME280;55481;48.764;8.936;2022-09-01T00:37:46;97220;;;13.8;77.5
68489;BME280;55481;48.764;8.936;2022-09-01T00:40:17;97230;;;13.7;77.5
68489;BME280;55481;48.764;8.936;2022-09-01T00:42:48;97230;;;13.7;77.5
68489;BME280;55481;48.764;8.936;2022-09-01T00:50:14;97220;;;13.5;78
68489;BME280;55481;48.764;8.936;2022-09-01T00:52:45;97220;;;13.5;77.5
68489;BME280;55481;48.764;8.936;2022-09-01T00:55:18;97220;;;13.5;77.5
68489;BME280;55481;48.764;8.936;2022-09-01T00:57:46;97230;;;13.5;77.5
68489;BME280;55481;48.764;8.936;2022-09-01T01:00:19;97230;;;13.4;77.5
68489;BME280;55481;48.764;8.936;2022-09-01T01:07:55;97220;;;13.2;78.5
68489;BME280;55481;48.764;8.936;2022-09-01T01:10:26;97220;;;13.3;78
68489;BME280;55481;48.764;8.936;2022-09-01T01:12:57;97220;;;13.3;77.5
68489;BME280;55481;48.764;8.936;2022-09-01T01:22:57;97220;;;13.4;77.5
68489;BME280;55481;48.764;8.936;2022-09-01T01:25:25;97220;;;13.5;77.5
68489;BME280;55481;48.764;8.936;2022-09-01T01:28:04;97220;;;13.5;77.5
68489;BME280;55481;48.764;8.936;2022-09-01T01:30:25;97220;;;13.4;77.5
68489;BME280;55481;48.764;8.936;2022-09-01T01:32:56;97220;;;13.4;77.5
68489;BME280;55481;48.764;8.936;2022-09-01T01:35:27;97220;;;13.4;77.5
68489;BME280;55481;48.764;8.936;2022-09-01T01:38:04;97220;;;13.2;77.5
68489;BME280;55481;48.764;8.936;2022-09-01T01:40:36;97210;;;13.1;78
68489;BME280;55481;48.764;8.936;2022-09-01T01:43:07;97220;;;13;78
68489;BME280;55481;48.764;8.936;2022-09-01T01:45:38;97220;;;13;78.5
68489;BME280;55481;48.764;8.936;2022-09-01T01:55:47;97220;;;12.8;78.5
68489;BME280;55481;48.764;8.936;2022-09-01T01:58:17;97220;;;12.9;78
68489;BME280;55481;48.764;8.936;2022-09-01T02:00:41;97220;;;13;78
68489;BME280;55481;48.764;8.936;2022-09-01T02:03:13;97230;;;13;78
68489;BME280;55481;48.764;8.936;2022-09-01T02:05:44;97220;;;12.9;78
68489;BME280;55481;48.764;8.936;2022-09-01T02:10:46;97220;;;12.7;78.5
68489;BME280;55481;48.764;8.936;2022-09-01T02:13:17;97220;;;12.6;78.5
68489;BME280;55481;48.764;8.936;2022-09-01T02:15:48;97220;;;12.6;78.5
68489;BME280;55481;48.764;8.936;2022-09-01T02:18:19;97210;;;12.8;78
68489;BME280;55481;48.764;8.936;2022-09-01T02:20:50;97210;;;12.9;78
68489;BME280;55481;48.764;8.936;2022-09-01T02:23:20;97210;;;13;77.5
68489;BME280;55481;48.764;8.936;2022-09-01T02:25:53;97210;;;13.1;77.5
68489;BME280;55481;48.764;8.936;2022-09-01T02:30:52;97210;;;12.8;78
68489;BME280;55481;48.764;8.936;2022-09-01T02:33:30;97220;;;12.7;78.5
68489;BME280;55481;48.764;8.936;2022-09-01T02:38:28;97220;;;12.6;78.5
68489;BME280;55481;48.764;8.936;2022-09-01T02:43:33;97220;;;12.5;78.5
68489;BME280;55481;48.764;8.936;2022-09-01T02:46:04;97220;;;12.5;78.5
68489;BME280;55481;48.764;8.936;2022-09-01T02:48:36;97220;;;12.6;78.5
68489;BME280;55481;48.764;8.936;2022-09-01T02:50:59;97220;;;12.6;78
68489;BME280;55481;48.764;8.936;2022-09-01T02:53:36;97210;;;12.7;78
68489;BME280;55481;48.764;8.936;2022-09-01T02:56:00;97220;;;12.7;78
68489;BME280;55481;48.764;8.936;2022-09-01T03:01:10;97220;;;12.8;77.5
68489;BME280;55481;48.764;8.936;2022-09-01T03:06:04;97220;;;12.6;78
68489;BME280;55481;48.764;8.936;2022-09-01T03:08:35;97210;;;12.6;78
68489;BME280;55481;48.764;8.936;2022-09-01T03:13:42;97210;;;12.4;78.5
68489;BME280;55481;48.764;8.936;2022-09-01T03:16:13;97210;;;12.4;78.5
68489;BME280;55481;48.764;8.936;2022-09-01T03:18:37;97210;;;12.4;78.5
68489;BME280;55481;48.764;8.936;2022-09-01T03:21:08;97210;;;12.4;78.5
68489;BME280;55481;48.764;8.936;2022-09-01T03:23:39;97210;;;12.4;78.5
68489;BME280;55481;48.764;8.936;2022-09-01T03:26:16;97210;;;12.3;78.5
68489;BME280;55481;48.764;8.936;2022-09-01T03:34:02;97210;;;12.2;78.5
68489;BME280;55481;48.764;8.936;2022-09-01T03:36:26;97210;;;12.2;78.5
68489;BME280;55481;48.764;8.936;2022-09-01T03:41:19;97200;;;12.2;78.5
68489;BME280;55481;48.764;8.936;2022-09-01T03:43:51;97210;;;12.3;78.5
68489;BME280;55481;48.764;8.936;2022-09-01T03:46:15;97200;;;12.2;78.5
68489;BME280;55481;48.764;8.936;2022-09-01T03:48:48;97210;;;12.3;78.5
68489;BME280;55481;48.764;8.936;2022-09-01T03:51:29;97200;;;12.6;77.5
68489;BME280;55481;48.764;8.936;2022-09-01T03:53:52;97200;;;12.6;77.5
68489;BME280;55481;48.764;8.936;2022-09-01T03:56:29;97210;;;12.5;77.5
68489;BME280;55481;48.764;8.936;2022-09-01T04:01:17;97210;;;12.6;77.5
68489;BME280;55481;48.764;8.936;2022-09-01T04:03:56;97210;;;12.5;77.5
68489;BME280;55481;48.764;8.936;2022-09-01T04:08:55;97210;;;12.3;78.5
68489;BME280;55481;48.764;8.936;2022-09-01T04:11:20;97210;;;12.4;78
68489;BME280;55481;48.764;8.936;2022-09-01T04:13:53;97210;;;12.4;78
68489;BME280;55481;48.764;8.936;2022-09-01T04:16:25;97220;;;12.3;78.5
68489;BME280;55481;48.764;8.936;2022-09-01T04:19:07;97220;;;12.3;78.5
68489;BME280;55481;48.764;8.936;2022-09-01T04:21:30;97220;;;12.3;78.5
68489;BME280;55481;48.764;8.936;2022-09-01T04:24:01;97220;;;12.3;78.5
68489;BME280;55481;48.764;8.936;2022-09-01T04:34:05;97220;;;12.1;79
68489;BME280;55481;48.764;8.936;2022-09-01T04:36:35;97220;;;12.1;79
68489;BME280;55481;48.764;8.936;2022-09-01T04:41:36;97220;;;12.2;78.5
68489;BME280;55481;48.764;8.936;2022-09-01T04:44:06;97230;;;12.1;78.5
68489;BME280;55481;48.764;8.936;2022-09-01T04:46:38;97230;;;12.1;79
68489;BME280;55481;48.764;8.936;2022-09-01T04:49:06;97230;;;12.2;78.5
68489;BME280;55481;48.764;8.936;2022-09-01T04:51:48;97230;;;12.3;78
68489;BME280;55481;48.764;8.936;2022-09-01T04:56:48;97230;;;12.4;78
68489;BME280;55481;48.764;8.936;2022-09-01T05:01:50;97230;;;12.3;78.5
68489;BME280;55481;48.764;8.936;2022-09-01T05:04:26;97230;;;12.5;78
68489;BME280;55481;48.764;8.936;2022-09-01T05:09:10;97220;;;12.7;77.5
68489;BME280;55481;48.764;8.936;2022-09-01T05:11:40;97220;;;12.7;78
68489;BME280;55481;48.764;8.936;2022-09-01T05:14:11;97220;;;12.8;77.5
68489;BME280;55481;48.764;8.936;2022-09-01T05:16:29;97220;;;13;77.5
68489;BME280;55481;48.764;8.936;2022-09-01T05:18:59;97220;;;13;77.5
68489;BME280;55481;48.764;8.936;2022-09-01T05:26:31;97230;;;13.2;77.5
68489;BME280;55481;48.764;8.936;2022-09-01T05:29:03;97230;;;13.2;77.5
68489;BME280;55481;48.764;8.936;2022-09-01T05:34:14;97220;;;12.8;78
68489;BME280;55481;48.764;8.936;2022-09-01T05:36:44;97220;;;12.6;78.5
68489;BME280;55481;48.764;8.936;2022-09-01T05:39:14;97230;;;12.6;78.5
68489;BME280;55481;48.764;8.936;2022-09-01T05:41:44;97220;;;12.7;78
68489;BME280;55481;48.764;8.936;2022-09-01T05:44:14;97230;;;12.9;78
68489;BME280;55481;48.764;8.936;2022-09-01T05:46:43;97220;;;12.8;78
68489;BME280;55481;48.764;8.936;2022-09-01T05:59:41;97210;;;13.2;77
68489;BME280;55481;48.764;8.936;2022-09-01T06:02:10;97220;;;13.3;77
68489;BME280;55481;48.764;8.936;2022-09-01T06:04:28;97210;;;13.4;76.5
68489;BME280;55481;48.764;8.936;2022-09-01T06:09:18;97210;;;13.1;77.5
68489;BME280;55481;48.764;8.936;2022-09-01T06:11:48;97210;;;13.2;77.5
68489;BME280;55481;48.764;8.936;2022-09-01T06:14:19;97200;;;13.3;77
68489;BME280;55481;48.764;8.936;2022-09-01T06:19:08;97210;;;13.7;76.5
68489;BME280;55481;48.764;8.936;2022-09-01T06:21:38;97210;;;13.7;76
68489;BME280;55481;48.764;8.936;2022-09-01T06:24:09;97210;;;13.8;76.5
68489;BME280;55481;48.764;8.936;2022-09-01T06:26:39;97210;;;13.9;76.5
68489;BME280;55481;48.764;8.936;2022-09-01T06:29:10;97210;;;14.1;76
68489;BME280;55481;48.764;8.936;2022-09-01T06:31:40;97220;;;14.2;76
68489;BME280;55481;48.764;8.936;2022-09-01T06:34:11;97210;;;14.6;75
68489;BME280;55481;48.764;8.936;2022-09-01T06:36:41;97210;;;14.9;74.5
68489;BME280;55481;48.764;8.936;2022-09-01T06:39:24;97210;;;15;74.5
68489;BME280;55481;48.764;8.936;2022-09-01T06:41:53;97200;;;15.1;74.5
68489;BME280;55481;48.764;8.936;2022-09-01T06:44:32;97210;;;15.3;74
68489;BME280;55481;48.764;8.936;2022-09-01T06:52:15;97210;;;15.5;74.5
68489;BME280;55481;48.764;8.936;2022-09-01T06:54:36;97210;;;15.6;74
68489;BME280;55481;48.764;8.936;2022-09-01T06:57:07;97210;;;15.7;74
68489;BME280;55481;48.764;8.936;2022-09-01T07:01:58;97210;;;15.8;74
68489;BME280;55481;48.764;8.936;2022-09-01T07:04:27;97220;;;15.8;74.5
68489;BME280;55481;48.764;8.936;2022-09-01T07:06:57;97220;;;15.9;74.5
68489;BME280;55481;48.764;8.936;2022-09-01T07:11:46;97230;;;15.9;74.5
68489;BME280;55481;48.764;8.936;2022-09-01T07:14:16;97230;;;16.2;74
68489;BME280;55481;48.764;8.936;2022-09-01T07:16:47;97230;;;16.3;74
68489;BME280;55481;48.764;8.936;2022-09-01T07:19:17;97230;;;16.5;74
68489;BME280;55481;48.764;8.936;2022-09-01T07:21:49;97230;;;16.6;73.5
68489;BME280;55481;48.764;8.936;2022-09-01T07:24:19;97230;;;16.6;73.5
68489;BME280;55481;48.764;8.936;2022-09-01T07:26:49;97230;;;16.6;74
68489;BME280;55481;48.764;8.936;2022-09-01T07:29:31;97220;;;16.6;74
68489;BME280;55481;48.764;8.936;2022-09-01T07:32:01;97230;;;16.6;74
68489;BME280;55481;48.764;8.936;2022-09-01T07:34:31;97230;;;16.5;74.5
68489;BME280;55481;48.764;8.936;2022-09-01T07:39:20;97230;;;16.7;74.5
68489;BME280;55481;48.764;8.936;2022-09-01T07:41:50;97230;;;17;73.5
68489;BME280;55481;48.764;8.936;2022-09-01T07:44:21;97230;;;17.1;73.5
68489;BME280;55481;48.764;8.936;2022-09-01T07:46:53;97230;;;17.5;73
68489;BME280;55481;48.764;8.936;2022-09-01T07:49:22;97230;;;18.1;71.5
68489;BME280;55481;48.764;8.936;2022-09-01T07:51:53;97230;;;17.9;72
68489;BME280;55481;48.764;8.936;2022-09-01T07:54:23;97230;;;18;72.5
68489;BME280;55481;48.764;8.936;2022-09-01T08:02:15;97240;;;17.3;74.5
68489;BME280;55481;48.764;8.936;2022-09-01T08:07:08;97240;;;17.8;73.5
68489;BME280;55481;48.764;8.936;2022-09-01T08:09:37;97240;;;18;73
68489;BME280;55481;48.764;8.936;2022-09-01T08:17:08;97250;;;18.4;72.5
68489;BME280;55481;48.764;8.936;2022-09-01T08:19:38;97250;;;18.5;72.5
68489;BME280;55481;48.764;8.936;2022-09-01T08:22:08;97250;;;18.5;73
68489;BME280;55481;48.764;8.936;2022-09-01T08:24:27;97250;;;18.3;73.5
68489;BME280;55481;48.764;8.936;2022-09-01T08:31:59;97250;;;18.4;73.5
68489;BME280;55481;48.764;8.936;2022-09-01T08:34:30;97260;;;18.3;73.5
68489;BME280;55481;48.764;8.936;2022-09-01T08:36:59;97250;;;18.3;74
68489;BME280;55481;48.764;8.936;2022-09-01T08:39:30;97260;;;18.5;73.5
68489;BME280;55481;48.764;8.936;2022-09-01T08:42:15;97250;;;18.5;73.5
68489;BME280;55481;48.764;8.936;2022-09-01T08:47:13;97260;;;18.6;73
68489;BME280;55481;48.764;8.936;2022-09-01T08:49:42;97260;;;18.7;73.5
68489;BME280;55481;48.764;8.936;2022-09-01T08:52:44;97270;;;18.6;73.5
68489;BME280;55481;48.764;8.936;2022-09-01T08:54:50;97270;;;18.5;73.5
68489;BME280;55481;48.764;8.936;2022-09-01T08:59:31;97260;;;18.6;73.5
68489;BME280;55481;48.764;8.936;2022-09-01T09:02:26;97270;;;18.7;73.5
68489;BME280;55481;48.764;8.936;2022-09-01T09:04:38;97270;;;18.9;73
68489;BME280;55481;48.764;8.936;2022-09-01T09:07:32;97260;;;19;73
68489;BME280;55481;48.764;8.936;2022-09-01T09:09:49;97260;;;18.9;73.5
68489;BME280;55481;48.764;8.936;2022-09-01T09:12:21;97270;;;18.8;73.5
68489;BME280;55481;48.764;8.936;2022-09-01T09:14:50;97270;;;18.5;74
68489;BME280;55481;48.764;8.936;2022-09-01T09:17:04;97270;;;18.4;74.5
68489;BME280;55481;48.764;8.936;2022-09-01T09:19:36;97270;;;18.5;74.5
68489;BME280;55481;48.764;8.936;2022-09-01T09:22:08;97270;;;18.4;74.5
68489;BME280;55481;48.764;8.936;2022-09-01T09:29:37;97270;;;19;73
68489;BME280;55481;48.764;8.936;2022-09-01T09:32:07;97260;;;19.2;72.5
68489;BME280;55481;48.764;8.936;2022-09-01T09:34:39;97260;;;19.5;72
68489;BME280;55481;48.764;8.936;2022-09-01T09:37:39;97260;;;19.3;72.5
68489;BME280;55481;48.764;8.936;2022-09-01T09:42:20;97260;;;19.5;72.5
68489;BME280;55481;48.764;8.936;2022-09-01T09:44:50;97250;;;20.2;71
68489;BME280;55481;48.764;8.936;2022-09-01T09:47:14;97240;;;20.7;70
68489;BME280;55481;48.764;8.936;2022-09-01T09:49:40;97250;;;20.7;70
68489;BME280;55481;48.764;8.936;2022-09-01T09:57:12;97250;;;20.3;72
68489;BME280;55481;48.764;8.936;2022-09-01T09:59:45;97250;;;20.5;71.5
68489;BME280;55481;48.764;8.936;2022-09-01T10:07:27;97230;;;21.2;70
68489;BME280;55481;48.764;8.936;2022-09-01T10:09:56;97240;;;21.5;69.5
68489;BME280;55481;48.764;8.936;2022-09-01T10:12:26;97230;;;21.6;69
68489;BME280;55481;48.764;8.936;2022-09-01T10:14:47;97240;;;21.1;71
68489;BME280;55481;48.764;8.936;2022-09-01T10:25:13;97230;;;21.3;70.5
68489;BME280;55481;48.764;8.936;2022-09-01T10:27:40;97230;;;21.5;70
68489;BME280;55481;48.764;8.936;2022-09-01T10:30:19;97230;;;21.6;69.5
68489;BME280;55481;48.764;8.936;2022-09-01T10:35:01;97230;;;21.7;69.5
68489;BME280;55481;48.764;8.936;2022-09-01T10:37:29;97230;;;21.5;70
68489;BME280;55481;48.764;8.936;2022-09-01T10:42:31;97230;;;22.9;67
68489;BME280;55481;48.764;8.936;2022-09-01T10:44:56;97230;;;22.2;69
68489;BME280;55481;48.764;8.936;2022-09-01T10:47:24;97230;;;21.6;70.5
68489;BME280;55481;48.764;8.936;2022-09-01T10:54:52;97230;;;21.5;70.5
68489;BME280;55481;48.764;8.936;2022-09-01T10:57:27;97220;;;21.3;71
68489;BME280;55481;48.764;8.936;2022-09-01T10:59:52;97220;;;22.1;69
68489;BME280;55481;48.764;8.936;2022-09-01T11:05:11;97210;;;22.5;67.5
68489;BME280;55481;48.764;8.936;2022-09-01T11:07:34;97210;;;22.3;68.5
68489;BME280;55481;48.764;8.936;2022-09-01T11:10:22;97210;;;22.9;67.5
68489;BME280;55481;48.764;8.936;2022-09-01T11:15:31;97220;;;22.2;69
68489;BME280;55481;48.764;8.936;2022-09-01T11:19:57;97210;;;22.6;68
68489;BME280;55481;48.764;8.936;2022-09-01T11:32:03;97200;;;22.8;68.5
68489;BME280;55481;48.764;8.936;2022-09-01T11:34:18;97190;;;23;68
68489;BME280;55481;48.764;8.936;2022-09-01T11:36:53;97190;;;23.4;66.5
68489;BME280;55481;48.764;8.936;2022-09-01T11:41:52;97180;;;26.3;59
68489;BME280;55481;48.764;8.936;2022-09-01T11:44:23;97160;;;28.6;54
68489;BME280;55481;48.764;8.936;2022-09-01T11:54:24;97180;;;27;59
68489;BME280;55481;48.764;8.936;2022-09-01T11:57:16;97190;;;26.5;60.5
68489;BME280;55481;48.764;8.936;2022-09-01T11:59:38;97170;;;28.5;56
68489;BME280;55481;48.764;8.936;2022-09-01T12:04:38;97170;;;27.1;59.5
68489;BME280;55481;48.764;8.936;2022-09-01T12:07:12;97190;;;24.6;66
68489;BME280;55481;48.764;8.936;2022-09-01T12:09:42;97190;;;23.4;69.5
68489;BME280;55481;48.764;8.936;2022-09-01T12:14:33;97170;;;26.3;61
68489;BME280;55481;48.764;8.936;2022-09-01T12:17:04;97180;;;24.4;65.5
68489;BME280;55481;48.764;8.936;2022-09-01T12:19:35;97180;;;23.2;68.5
68489;BME280;55481;48.764;8.936;2022-09-01T12:22:12;97180;;;23;69
68489;BME280;55481;48.764;8.936;2022-09-01T12:24:31;97180;;;23.1;68.5
68489;BME280;55481;48.764;8.936;2022-09-01T12:27:03;97180;;;24.5;65
68489;BME280;55481;48.764;8.936;2022-09-01T12:34:47;97190;;;22.6;68.5
68489;BME280;55481;48.764;8.936;2022-09-01T12:37:19;97190;;;22.2;69.5
68489;BME280;55481;48.764;8.936;2022-09-01T12:39:48;97160;;;26.1;60
68489;BME280;55481;48.764;8.936;2022-09-01T12:44:49;97160;;;26.7;59
68489;BME280;55481;48.764;8.936;2022-09-01T12:47:17;97170;;;24.4;65
68489;BME280;55481;48.764;8.936;2022-09-01T12:49:45;97170;;;24.2;66
68489;BME280;55481;48.764;8.936;2022-09-01T12:52:12;97170;;;23.3;67.5
68489;BME280;55481;48.764;8.936;2022-09-01T12:54:38;97160;;;24.5;65
68489;BME280;55481;48.764;8.936;2022-09-01T12:57:08;97150;;;27.6;57
68489;BME280;55481;48.764;8.936;2022-09-01T12:59:39;97150;;;27.8;56
68489;BME280;55481;48.764;8.936;2022-09-01T13:04:41;97160;;;27.6;56.5
68489;BME280;55481;48.764;8.936;2022-09-01T13:09:48;97170;;;23.5;67
68489;BME280;55481;48.764;8.936;2022-09-01T13:12:20;97170;;;23.2;67
68489;BME280;55481;48.764;8.936;2022-09-01T13:14:50;97170;;;23;67
68489;BME280;55481;48.764;8.936;2022-09-01T13:17:21;97150;;;24.9;63
68489;BME280;55481;48.764;8.936;2022-09-01T13:22:16;97130;;;29.3;52.5
68489;BME280;55481;48.764;8.936;2022-09-01T13:24:46;97130;;;30;51.5
68489;BME280;55481;48.764;8.936;2022-09-01T13:27:17;97140;;;27.2;57.5
68489;BME280;55481;48.764;8.936;2022-09-01T13:32:19;97130;;;28.6;55
68489;BME280;55481;48.764;8.936;2022-09-01T13:34:50;97130;;;30.1;52
68489;BME280;55481;48.764;8.936;2022-09-01T13:37:34;97130;;;30.3;51.5
68489;BME280;55481;48.764;8.936;2022-09-01T13:40:04;97140;;;27.1;58
68489;BME280;55481;48.764;8.936;2022-09-01T13:42:35;97150;;;24.5;64
68489;BME280;55481;48.764;8.936;2022-09-01T13:47:29;97160;;;22.5;67.5
68489;BME280;55481;48.764;8.936;2022-09-01T13:50:00;97160;;;22.3;67
68489;BME280;55481;48.764;8.936;2022-09-01T14:00:12;97150;;;22.2;64.5
68489;BME280;55481;48.764;8.936;2022-09-01T14:05:10;97150;;;22.2;63.5
68489;BME280;55481;48.764;8.936;2022-09-01T14:07:40;97150;;;22.3;63.5
68489;BME280;55481;48.764;8.936;2022-09-01T14:12:34;97140;;;22.7;62
68489;BME280;55481;48.764;8.936;2022-09-01T14:15:13;97140;;;22.6;62.5
68489;BME280;55481;48.764;8.936;2022-09-01T14:17:37;97140;;;22.6;62.5
68489;BME280;55481;48.764;8.936;2022-09-01T14:20:09;97140;;;22.6;62.5
68489;BME280;55481;48.764;8.936;2022-09-01T14:22:39;97140;;;22.7;62
68489;BME280;55481;48.764;8.936;2022-09-01T14:25:17;97140;;;22.5;62.5
68489;BME280;55481;48.764;8.936;2022-09-01T14:30:25;97130;;;22.4;62.5
68489;BME280;55481;48.764;8.936;2022-09-01T14:33:01;97130;;;22.5;62
68489;BME280;55481;48.764;8.936;2022-09-01T14:35:18;97130;;;22.7;61.5
68489;BME280;55481;48.764;8.936;2022-09-01T14:37:48;97120;;;24.5;58.5
68489;BME280;55481;48.764;8.936;2022-09-01T14:42:43;97120;;;24.4;59
68489;BME280;55481;48.764;8.936;2022-09-01T14:45:21;97110;;;23.9;60
68489;BME280;55481;48.764;8.936;2022-09-01T14:47:45;97110;;;23.4;61
68489;BME280;55481;48.764;8.936;2022-09-01T14:50:15;97110;;;24.4;59
68489;BME280;55481;48.764;8.936;2022-09-01T14:52:59;97110;;;25.7;56
68489;BME280;55481;48.764;8.936;2022-09-01T14:55:29;97100;;;26.1;55.5
68489;BME280;55481;48.764;8.936;2022-09-01T14:57:59;97100;;;25.7;56.5
68489;BME280;55481;48.764;8.936;2022-09-01T15:00:16;97100;;;26.2;55
68489;BME280;55481;48.764;8.936;2022-09-01T15:02:47;97100;;;24.7;58
68489;BME280;55481;48.764;8.936;2022-09-01T15:05:18;97100;;;23.7;61
68489;BME280;55481;48.764;8.936;2022-09-01T15:07:52;97100;;;24.8;58
68489;BME280;55481;48.764;8.936;2022-09-01T15:10:26;97100;;;25;57
68489;BME280;55481;48.764;8.936;2022-09-01T15:13:03;97100;;;25;57
68489;BME280;55481;48.764;8.936;2022-09-01T15:17:50;97100;;;24.6;57
68489;BME280;55481;48.764;8.936;2022-09-01T15:20:22;97100;;;24.7;57
68489;BME280;55481;48.764;8.936;2022-09-01T15:22:53;97090;;;24.7;56.5
68489;BME280;55481;48.764;8.936;2022-09-01T15:25:29;97090;;;24.6;57
68489;BME280;55481;48.764;8.936;2022-09-01T15:27:55;97090;;;24.5;57
68489;BME280;55481;48.764;8.936;2022-09-01T15:30:27;97090;;;23.9;58.5
68489;BME280;55481;48.764;8.936;2022-09-01T15:32:56;97100;;;23.8;58.5
68489;BME280;55481;48.764;8.936;2022-09-01T15:35:28;97090;;;23.5;59
68489;BME280;55481;48.764;8.936;2022-09-01T15:38:04;97090;;;23.6;58.5
68489;BME280;55481;48.764;8.936;2022-09-01T15:45:37;97080;;;23.2;59
68489;BME280;55481;48.764;8.936;2022-09-01T15:48:07;97080;;;23.1;59.5
68489;BME280;55481;48.764;8.936;2022-09-01T15:55:41;97080;;;22.9;59.5
68489;BME280;55481;48.764;8.936;2022-09-01T15:58:03;97080;;;22.8;59.5
68489;BME280;55481;48.764;8.936;2022-09-01T16:00:34;97080;;;22.5;60
68489;BME280;55481;48.764;8.936;2022-09-01T16:03:00;97080;;;22.4;60
68489;BME280;55481;48.764;8.936;2022-09-01T16:05:31;97070;;;22.4;60
68489;BME280;55481;48.764;8.936;2022-09-01T16:10:31;97070;;;22.3;60
68489;BME280;55481;48.764;8.936;2022-09-01T16:13:02;97070;;;22.2;60
68489;BME280;55481;48.764;8.936;2022-09-01T16:15:32;97070;;;22;60.5
68489;BME280;55481;48.764;8.936;2022-09-01T16:18:09;97070;;;21.9;60.5
68489;BME280;55481;48.764;8.936;2022-09-01T16:20:36;97070;;;21.8;60.5
68489;BME280;55481;48.764;8.936;2022-09-01T16:28:12;97060;;;21.7;60.5
68489;BME280;55481;48.764;8.936;2022-09-01T16:33:08;97060;;;21.6;60.5
68489;BME280;55481;48.764;8.936;2022-09-01T16:35:57;97060;;;21.6;60.5
68489;BME280;55481;48.764;8.936;2022-09-01T16:40:50;97060;;;21.5;60.5
68489;BME280;55481;48.764;8.936;2022-09-01T16:43:23;97060;;;21.5;60
68489;BME280;55481;48.764;8.936;2022-09-01T16:46:00;97060;;;21.4;60
68489;BME280;55481;48.764;8.936;2022-09-01T16:48:52;97060;;;21.4;60
68489;BME280;55481;48.764;8.936;2022-09-01T16:50:54;97060;;;21.3;60.5
68489;BME280;55481;48.764;8.936;2022-09-01T16:53:27;97060;;;21.3;60.5
68489;BME280;55481;48.764;8.936;2022-09-01T16:56:04;97060;;;21.2;60.5
68489;BME280;55481;48.764;8.936;2022-09-01T17:00:57;97060;;;21.1;60.5
68489;BME280;55481;48.764;8.936;2022-09-01T17:03:30;97060;;;21;60.5
68489;BME280;55481;48.764;8.936;2022-09-01T17:06:01;97060;;;20.9;61
68489;BME280;55481;48.764;8.936;2022-09-01T17:08:30;97060;;;20.8;61
68489;BME280;55481;48.764;8.936;2022-09-01T17:12:07;97060;;;20.7;61
68489;BME280;55481;48.764;8.936;2022-09-01T17:13:32;97060;;;20.7;61
68489;BME280;55481;48.764;8.936;2022-09-01T17:16:02;97060;;;20.6;61
68489;BME280;55481;48.764;8.936;2022-09-01T17:18:33;97060;;;20.6;61
68489;BME280;55481;48.764;8.936;2022-09-01T17:21:19;97060;;;20.6;61
68489;BME280;55481;48.764;8.936;2022-09-01T17:23:41;97060;;;20.5;61
68489;BME280;55481;48.764;8.936;2022-09-01T17:26:13;97060;;;20.4;61
68489;BME280;55481;48.764;8.936;2022-09-01T17:28:49;97070;;;20.3;61
68489;BME280;55481;48.764;8.936;2022-09-01T17:33:51;97060;;;20.2;61
68489;BME280;55481;48.764;8.936;2022-09-01T17:36:14;97070;;;20.2;61.5
68489;BME280;55481;48.764;8.936;2022-09-01T17:38:40;97070;;;20;61.5
68489;BME280;55481;48.764;8.936;2022-09-01T17:41:12;97070;;;20;61.5
68489;BME280;55481;48.764;8.936;2022-09-01T17:43:40;97080;;;20;61.5
68489;BME280;55481;48.764;8.936;2022-09-01T17:46:06;97070;;;19.9;61.5
68489;BME280;55481;48.764;8.936;2022-09-01T17:51:11;97080;;;19.7;61.5
68489;BME280;55481;48.764;8.936;2022-09-01T17:58:40;97090;;;19.6;61.5
68489;BME280;55481;48.764;8.936;2022-09-01T18:01:09;97090;;;19.5;61.5
68489;BME280;55481;48.764;8.936;2022-09-01T18:03:41;97090;;;19.5;62
68489;BME280;55481;48.764;8.936;2022-09-01T18:07:15;97090;;;19.3;62
68489;BME280;55481;48.764;8.936;2022-09-01T18:08:46;97090;;;19.3;62
68489;BME280;55481;48.764;8.936;2022-09-01T18:11:19;97100;;;19.2;62
68489;BME280;55481;48.764;8.936;2022-09-01T18:13:49;97100;;;19;62
68489;BME280;55481;48.764;8.936;2022-09-01T18:16:22;97100;;;18.9;62.5
68489;BME280;55481;48.764;8.936;2022-09-01T18:18:58;97100;;;18.8;62.5
68489;BME280;55481;48.764;8.936;2022-09-01T18:21:35;97110;;;18.8;62.5
68489;BME280;55481;48.764;8.936;2022-09-01T18:26:22;97110;;;18.6;62.5
68489;BME280;55481;48.764;8.936;2022-09-01T18:28:54;97110;;;18.5;62.5
68489;BME280;55481;48.764;8.936;2022-09-01T18:31:32;97110;;;18.5;62.5
68489;BME280;55481;48.764;8.936;2022-09-01T18:34:27;97110;;;18.4;62.5
68489;BME280;55481;48.764;8.936;2022-09-01T18:36:32;97120;;;18.4;62.5
68489;BME280;55481;48.764;8.936;2022-09-01T18:39:05;97120;;;18.3;63
68489;BME280;55481;48.764;8.936;2022-09-01T18:44:00;97120;;;18.1;63
68489;BME280;55481;48.764;8.936;2022-09-01T18:46:37;97120;;;18.1;63
68489;BME280;55481;48.764;8.936;2022-09-01T18:49:03;97130;;;18;63
68489;BME280;55481;48.764;8.936;2022-09-01T18:51:36;97120;;;18;63
68489;BME280;55481;48.764;8.936;2022-09-01T18:54:09;97130;;;17.9;63
68489;BME280;55481;48.764;8.936;2022-09-01T18:56:35;97130;;;17.9;63
68489;BME280;55481;48.764;8.936;2022-09-01T18:59:07;97130;;;17.8;63
68489;BME280;55481;48.764;8.936;2022-09-01T19:01:36;97130;;;17.7;63
68489;BME280;55481;48.764;8.936;2022-09-01T19:04:12;97120;;;17.6;63.5
68489;BME280;55481;48.764;8.936;2022-09-01T19:06:45;97130;;;17.6;63.5
68489;BME280;55481;48.764;8.936;2022-09-01T19:09:15;97130;;;17.5;63.5
68489;BME280;55481;48.764;8.936;2022-09-01T19:14:13;97130;;;17.4;63.5
68489;BME280;55481;48.764;8.936;2022-09-01T19:16:43;97130;;;17.4;63.5
68489;BME280;55481;48.764;8.936;2022-09-01T19:19:22;97130;;;17.3;63.5